CLV2 weather

Stayner (Clearview Field) Airport
Stayner, Ontario, Canada

Public forecast

Using degrees Celsius for public forecast. Weather courtesy of forecast.io.

METAR (pilot weather report)

Closest report is CFB Borden, 12.9 nm (23.9 km) SE. Retrieved 2019/09/21 07:00 UTC (49 minutes ago):

CYBN 210700Z AUTO 19002KT 9SM CLR 15/14 A3016 RMK SLP214

TAF (pilot weather forecast)

Forecast is more than 12 hours old.

Closest forecast is CFB Borden, 12.9 nm (23.9 km) SE. Retrieved 2019/09/20 18:33 UTC (13 hours ago):

TAF TAF CYBN 201730Z 2018/2106 16007KT P6SM FEW050 BKN190 FM210100 VRB03KT P6SM BKN040 OVC160 RMK FCST BASED ON AUTO OBS. NXT FCST BY 210000Z